createdAt,value
2022-11-02T00:20:25.339Z,1023.17
2022-11-02T00:48:56.470Z,1023.01
2022-11-02T01:17:24.468Z,1022.84
2022-11-02T01:45:56.785Z,1022.79
2022-11-02T02:14:25.033Z,1022.75
2022-11-02T02:42:56.108Z,1022.72
2022-11-02T03:11:25.335Z,1022.61
2022-11-02T03:39:50.802Z,1022.85
2022-11-02T04:08:13.188Z,1022.94
2022-11-02T04:36:36.801Z,1023.2
2022-11-02T05:05:01.388Z,1023.37
2022-11-02T06:01:42.116Z,1024.03
2022-11-02T06:30:08.750Z,1024.09
2022-11-02T06:58:25.812Z,1024.82
2022-11-02T07:26:53.117Z,1025.01
2022-11-02T07:55:03.551Z,1025.26
2022-11-02T08:23:27.545Z,1025.48
2022-11-02T08:51:45.892Z,1025.44
2022-11-02T09:20:10.730Z,1025.33
2022-11-02T09:48:37.772Z,1025.29
2022-11-02T10:16:59.809Z,1025.35
2022-11-02T10:45:21.896Z,1025.32
2022-11-02T11:42:13.725Z,1024.7
2022-11-02T12:10:37.644Z,1024.43
2022-11-02T12:38:55.175Z,1024.2
2022-11-02T13:07:20.598Z,1023.93
2022-11-02T13:35:48.227Z,1023.69
2022-11-02T14:04:11.304Z,1023.46
2022-11-02T14:32:32.004Z,1023.27
2022-11-02T15:00:53.161Z,1023.1
2022-11-02T15:29:10.896Z,1022.99
2022-11-02T15:57:32.028Z,1022.8
2022-11-02T16:25:47.359Z,1022.54
2022-11-02T16:54:05.656Z,1022.41
2022-11-02T17:22:22.486Z,1022.33
2022-11-02T17:50:42.535Z,1022.19
2022-11-02T18:19:03.878Z,1022.3
2022-11-02T18:47:18.701Z,1022.07
2022-11-02T19:15:46.131Z,1021.97
2022-11-02T19:43:57.230Z,1021.77
2022-11-02T20:12:13.348Z,1021.67
2022-11-02T20:40:41.923Z,1021.63
2022-11-02T21:08:45.643Z,1021.51
2022-11-02T21:37:06.195Z,1021.35
2022-11-02T22:05:23.298Z,1021.04
2022-11-02T22:33:45.537Z,1021.17
2022-11-02T23:02:06.907Z,1021.01
2022-11-02T23:30:26.282Z,1020.51
2022-11-02T23:58:48.452Z,1020.21
